createdAt,value
2022-08-17T00:00:09.185Z,21.24
2022-08-17T00:02:59.935Z,21.22
2022-08-17T00:05:37.899Z,21.22
2022-08-17T00:08:04.998Z,21.11
2022-08-17T00:10:32.560Z,21.05
2022-08-17T00:12:59.710Z,21.00
2022-08-17T00:15:26.677Z,20.98
2022-08-17T00:17:53.778Z,20.95
2022-08-17T00:20:23.367Z,20.91
2022-08-17T00:23:16.079Z,20.97
2022-08-17T00:25:45.740Z,20.91
2022-08-17T00:28:15.867Z,20.90
2022-08-17T00:30:53.188Z,20.93
2022-08-17T00:33:27.328Z,20.88
2022-08-17T00:35:55.794Z,20.78
2022-08-17T00:38:24.438Z,20.73
2022-08-17T00:40:59.242Z,20.68
2022-08-17T00:43:39.407Z,20.68
2022-08-17T00:46:13.800Z,20.68
2022-08-17T00:48:42.115Z,20.62
2022-08-17T00:51:19.843Z,20.65
2022-08-17T00:54:19.152Z,20.63
2022-08-17T00:56:56.819Z,20.52
2022-08-17T00:59:27.657Z,20.46
2022-08-17T01:01:54.930Z,20.37
2022-08-17T01:04:22.702Z,20.39
2022-08-17T01:06:51.198Z,20.37
2022-08-17T01:09:19.485Z,20.35
2022-08-17T01:11:52.442Z,20.31
2022-08-17T01:14:25.530Z,20.31
2022-08-17T01:16:55.910Z,20.28
2022-08-17T01:19:29.576Z,20.30
2022-08-17T01:22:07.558Z,20.32
2022-08-17T01:24:37.301Z,20.26
2022-08-17T01:27:10.474Z,20.18
2022-08-17T01:29:39.436Z,20.14
2022-08-17T01:32:07.969Z,20.12
2022-08-17T01:34:42.515Z,20.11
2022-08-17T01:37:10.821Z,20.15
2022-08-17T01:39:43.597Z,20.19
2022-08-17T01:42:17.974Z,20.19
2022-08-17T01:44:44.964Z,20.17
2022-08-17T01:47:11.937Z,20.14
2022-08-17T01:49:39.550Z,20.15
2022-08-17T01:52:09.917Z,20.15
2022-08-17T01:54:39.878Z,20.11
2022-08-17T01:57:07.200Z,20.13
2022-08-17T01:59:34.237Z,20.12
2022-08-17T02:02:01.357Z,20.11
2022-08-17T02:04:28.241Z,20.07
2022-08-17T02:06:55.086Z,20.05
2022-08-17T02:09:29.917Z,20.06
2022-08-17T02:11:59.264Z,20.02
2022-08-17T02:14:26.765Z,19.99
2022-08-17T02:16:54.208Z,19.98
2022-08-17T02:19:21.986Z,19.95
2022-08-17T02:21:51.268Z,19.95
2022-08-17T02:24:58.390Z,19.94
2022-08-17T02:27:10.031Z,19.89
2022-08-17T02:29:37.279Z,19.84
2022-08-17T02:32:05.110Z,19.82
2022-08-17T02:34:32.519Z,19.83
2022-08-17T02:36:59.434Z,19.81
2022-08-17T02:39:26.307Z,19.79
2022-08-17T02:42:04.080Z,19.81
2022-08-17T02:44:39.431Z,19.76
2022-08-17T02:47:08.794Z,19.75
2022-08-17T02:49:36.197Z,19.80
2022-08-17T02:52:05.375Z,19.82
2022-08-17T02:54:41.131Z,19.82
2022-08-17T02:57:10.037Z,19.85
2022-08-17T02:59:38.281Z,19.89
2022-08-17T03:02:07.547Z,19.95
2022-08-17T03:04:35.300Z,20.00
2022-08-17T03:07:03.008Z,20.00
2022-08-17T03:09:29.957Z,19.97
2022-08-17T03:12:06.520Z,20.03
2022-08-17T03:14:34.531Z,19.96
2022-08-17T03:17:02.840Z,19.97
2022-08-17T03:19:30.416Z,20.02
2022-08-17T03:22:01.292Z,20.07
2022-08-17T03:24:48.142Z,20.10
2022-08-17T03:27:15.509Z,20.09
2022-08-17T03:29:42.331Z,20.10
2022-08-17T03:32:13.570Z,20.13
2022-08-17T03:34:41.153Z,20.08
2022-08-17T03:37:08.339Z,20.14
2022-08-17T03:39:35.232Z,20.16
2022-08-17T03:42:07.965Z,20.21
2022-08-17T03:44:57.803Z,20.18
2022-08-17T03:47:43.461Z,20.21
2022-08-17T03:50:30.914Z,20.27
2022-08-17T03:53:16.386Z,20.30
2022-08-17T03:56:02.146Z,20.32
2022-08-17T03:58:29.023Z,20.35
2022-08-17T04:00:56.005Z,20.39
2022-08-17T04:03:22.901Z,20.40
2022-08-17T04:05:49.726Z,20.45
2022-08-17T04:08:16.556Z,20.44
2022-08-17T04:10:45.149Z,20.44
2022-08-17T04:13:13.082Z,20.47
2022-08-17T04:15:40.295Z,20.49
2022-08-17T04:18:07.733Z,20.53
2022-08-17T04:20:37.989Z,20.59
2022-08-17T04:23:12.084Z,20.71
2022-08-17T04:25:42.133Z,20.79
2022-08-17T04:28:15.889Z,20.85
2022-08-17T04:30:45.306Z,20.89
2022-08-17T04:33:18.770Z,20.98
2022-08-17T04:35:49.437Z,21.01
2022-08-17T04:38:19.201Z,21.07
2022-08-17T04:41:04.990Z,21.17
2022-08-17T04:43:34.303Z,21.30
2022-08-17T04:46:05.032Z,21.36
2022-08-17T04:48:37.231Z,21.40
2022-08-17T04:51:11.563Z,21.47
2022-08-17T04:53:41.132Z,21.50
2022-08-17T04:56:11.804Z,21.56
2022-08-17T04:58:45.119Z,21.61
2022-08-17T05:01:12.320Z,21.64
2022-08-17T05:03:39.326Z,21.67
2022-08-17T05:06:06.471Z,21.70
2022-08-17T05:08:33.582Z,21.73
2022-08-17T05:11:00.738Z,21.79
2022-08-17T05:13:29.865Z,21.83
2022-08-17T05:15:59.608Z,21.91
2022-08-17T05:18:27.687Z,21.95
2022-08-17T05:20:54.787Z,22.00
2022-08-17T05:23:24.267Z,22.05
2022-08-17T05:25:54.847Z,22.10
2022-08-17T05:28:27.453Z,22.17
2022-08-17T05:30:57.433Z,22.22
2022-08-17T05:33:28.089Z,22.32
2022-08-17T05:35:56.983Z,22.41
2022-08-17T05:38:25.570Z,22.48
2022-08-17T05:40:53.287Z,22.57
2022-08-17T05:43:25.403Z,22.66
2022-08-17T05:46:20.438Z,22.73
2022-08-17T05:49:11.970Z,22.76
2022-08-17T05:51:44.406Z,22.76
2022-08-17T05:54:49.596Z,22.87
2022-08-17T05:57:22.095Z,22.79
2022-08-17T06:00:01.156Z,22.92
2022-08-17T06:02:30.929Z,22.93
2022-08-17T06:05:22.703Z,23.03
2022-08-17T06:07:58.161Z,23.10
2022-08-17T06:10:36.017Z,23.13
2022-08-17T06:13:41.210Z,23.20
2022-08-17T06:16:31.079Z,23.24
2022-08-17T06:19:16.157Z,23.33
2022-08-17T06:21:47.813Z,23.39
2022-08-17T06:24:24.062Z,23.51
2022-08-17T06:26:53.998Z,23.53
2022-08-17T06:29:42.640Z,23.68
2022-08-17T06:32:13.000Z,23.69
2022-08-17T06:34:41.669Z,23.74
2022-08-17T06:37:40.929Z,23.89
2022-08-17T06:40:37.855Z,23.96
2022-08-17T06:43:33.219Z,24.02
2022-08-17T06:46:13.082Z,23.97
2022-08-17T06:48:50.136Z,24.08
2022-08-17T06:51:34.155Z,24.11
2022-08-17T06:54:22.499Z,24.26
2022-08-17T06:56:57.397Z,24.31
2022-08-17T06:59:55.444Z,24.34
2022-08-17T07:02:55.654Z,24.47
2022-08-17T07:05:42.740Z,24.56
2022-08-17T07:08:12.722Z,24.56
2022-08-17T07:10:46.312Z,24.62
2022-08-17T07:13:51.093Z,24.71
2022-08-17T07:16:25.085Z,24.73
2022-08-17T07:18:54.676Z,24.83
2022-08-17T07:22:00.474Z,24.99
2022-08-17T07:24:47.353Z,25.06
2022-08-17T07:27:16.553Z,25.12
2022-08-17T07:30:08.038Z,25.22
2022-08-17T07:32:47.637Z,25.33
2022-08-17T07:35:40.936Z,25.38
2022-08-17T07:38:27.802Z,25.48
2022-08-17T07:40:58.098Z,25.56
2022-08-17T07:43:29.626Z,25.64
2022-08-17T07:46:19.479Z,25.76
2022-08-17T07:48:52.750Z,25.86
2022-08-17T07:51:23.077Z,25.92
2022-08-17T07:53:50.048Z,26.00
2022-08-17T07:56:46.660Z,26.13
2022-08-17T07:59:18.374Z,26.14
2022-08-17T08:01:58.930Z,26.21
2022-08-17T08:05:02.079Z,26.27
2022-08-17T08:07:38.219Z,26.33
2022-08-17T08:10:36.829Z,26.41
2022-08-17T08:13:08.514Z,26.43
2022-08-17T08:15:53.935Z,26.50
2022-08-17T08:18:47.601Z,26.51
2022-08-17T08:21:44.114Z,26.55
2022-08-17T08:24:34.807Z,26.61
2022-08-17T08:27:15.997Z,26.66
2022-08-17T08:30:05.304Z,26.72
2022-08-17T08:32:46.548Z,26.75
2022-08-17T08:35:37.107Z,26.90
2022-08-17T08:38:20.313Z,26.94
2022-08-17T08:41:12.087Z,27.07
2022-08-17T08:43:58.253Z,27.12
2022-08-17T08:46:35.602Z,27.07
2022-08-17T08:49:33.795Z,27.13
2022-08-17T08:52:25.746Z,27.19
2022-08-17T08:55:01.188Z,27.22
2022-08-17T08:57:34.712Z,27.24
2022-08-17T09:00:20.875Z,27.33
2022-08-17T09:03:51.714Z,27.53
2022-08-17T09:06:37.925Z,27.57
2022-08-17T09:09:26.407Z,27.65
2022-08-17T09:12:16.886Z,27.66
2022-08-17T09:15:18.462Z,27.82
2022-08-17T09:18:59.866Z,27.90
2022-08-17T09:21:47.946Z,27.89
2022-08-17T09:24:44.155Z,27.90
2022-08-17T09:27:15.631Z,27.93
2022-08-17T09:29:45.803Z,27.86
2022-08-17T09:32:40.481Z,27.80
2022-08-17T09:35:19.933Z,27.88
2022-08-17T09:38:18.285Z,28.15
2022-08-17T09:41:12.841Z,28.28
2022-08-17T09:43:55.383Z,28.33
2022-08-17T09:46:35.109Z,28.41
2022-08-17T09:49:21.861Z,28.57
2022-08-17T09:52:00.255Z,28.74
2022-08-17T09:54:40.850Z,28.71
2022-08-17T09:57:31.774Z,28.79
2022-08-17T10:00:10.814Z,28.68
2022-08-17T10:03:06.198Z,28.78
2022-08-17T10:05:46.526Z,28.89
2022-08-17T10:08:52.540Z,28.79
2022-08-17T10:12:12.759Z,29.05
2022-08-17T10:15:08.014Z,29.31
2022-08-17T10:17:56.841Z,29.51
2022-08-17T10:20:30.282Z,29.48
2022-08-17T10:23:21.879Z,30.09
2022-08-17T10:26:11.566Z,30.81
2022-08-17T10:29:11.367Z,31.85
2022-08-17T10:31:46.593Z,32.25
2022-08-17T10:34:45.008Z,32.92
2022-08-17T10:37:37.865Z,33.28
2022-08-17T10:40:36.428Z,33.19
2022-08-17T10:43:15.406Z,33.36
2022-08-17T10:45:46.041Z,33.92
2022-08-17T10:48:14.110Z,34.41
2022-08-17T10:50:56.078Z,34.68
2022-08-17T10:53:32.045Z,33.98
2022-08-17T10:56:13.995Z,33.98
2022-08-17T10:58:54.722Z,34.14
2022-08-17T11:02:14.016Z,34.56
2022-08-17T11:04:43.641Z,34.74
2022-08-17T11:07:19.586Z,34.43
2022-08-17T11:10:05.336Z,34.08
2022-08-17T11:12:51.319Z,33.83
2022-08-17T11:15:59.486Z,34.08
2022-08-17T11:19:05.961Z,35.11
2022-08-17T11:21:57.340Z,34.77
2022-08-17T11:24:38.153Z,35.01
2022-08-17T11:27:13.917Z,34.80
2022-08-17T11:29:53.524Z,35.14
2022-08-17T11:32:37.408Z,35.35
2022-08-17T11:35:32.165Z,34.86
2022-08-17T11:38:16.451Z,34.59
2022-08-17T11:41:12.459Z,35.61
2022-08-17T11:44:16.535Z,36.01
2022-08-17T11:47:17.238Z,36.27
2022-08-17T11:50:17.863Z,35.80
2022-08-17T11:52:47.640Z,36.23
2022-08-17T11:55:36.363Z,36.70
2022-08-17T11:58:30.047Z,36.64
2022-08-17T12:01:06.941Z,36.64
2022-08-17T12:03:33.786Z,36.16
2022-08-17T12:06:05.769Z,36.33
2022-08-17T12:08:38.354Z,36.73
2022-08-17T12:11:16.587Z,36.99
2022-08-17T12:14:04.761Z,36.88
2022-08-17T12:16:31.592Z,37.03
2022-08-17T12:19:02.444Z,36.77
2022-08-17T12:21:51.854Z,36.63
2022-08-17T12:24:29.282Z,36.75
2022-08-17T12:26:59.674Z,37.07
2022-08-17T12:29:38.931Z,37.12
2022-08-17T12:32:13.130Z,36.76
2022-08-17T12:34:42.711Z,36.59
2022-08-17T12:37:36.489Z,37.21
2022-08-17T12:40:17.599Z,37.01
2022-08-17T12:42:56.608Z,36.99
2022-08-17T12:45:41.915Z,36.95
2022-08-17T12:48:12.436Z,36.50
2022-08-17T12:50:45.103Z,36.41
2022-08-17T12:53:17.397Z,36.54
2022-08-17T12:55:44.608Z,36.34
2022-08-17T12:58:16.996Z,36.65
2022-08-17T13:00:57.946Z,37.06
2022-08-17T13:03:26.820Z,37.70
2022-08-17T13:06:25.668Z,37.82
2022-08-17T13:08:52.504Z,38.06
2022-08-17T13:11:24.251Z,38.51
2022-08-17T13:13:55.129Z,39.05
2022-08-17T13:16:23.772Z,39.27
2022-08-17T13:19:15.175Z,39.77
2022-08-17T13:21:54.087Z,39.78
2022-08-17T13:24:25.997Z,39.95
2022-08-17T13:26:54.455Z,39.96
2022-08-17T13:29:29.599Z,40.29
2022-08-17T13:32:13.114Z,40.27
2022-08-17T13:35:12.469Z,39.89
2022-08-17T13:37:42.616Z,39.74
2022-08-17T13:40:09.595Z,39.87
2022-08-17T13:42:52.407Z,39.84
2022-08-17T13:45:36.369Z,40.01
2022-08-17T13:48:07.748Z,39.47
2022-08-17T13:50:56.409Z,39.94
2022-08-17T13:53:40.397Z,39.90
2022-08-17T13:56:38.301Z,39.60
2022-08-17T13:59:38.230Z,39.40
2022-08-17T14:02:13.951Z,38.94
2022-08-17T14:04:44.165Z,38.87
2022-08-17T14:07:13.563Z,38.89
2022-08-17T14:09:47.802Z,39.06
2022-08-17T14:12:18.077Z,39.02
2022-08-17T14:14:45.373Z,38.78
2022-08-17T14:17:12.497Z,38.51
2022-08-17T14:19:39.870Z,38.54
2022-08-17T14:22:19.503Z,38.75
2022-08-17T14:24:46.407Z,38.43
2022-08-17T14:27:13.226Z,38.43
2022-08-17T14:29:41.301Z,38.26
2022-08-17T14:32:20.602Z,38.58
2022-08-17T14:34:49.638Z,38.14
2022-08-17T14:37:20.794Z,38.17
2022-08-17T14:39:48.039Z,37.85
2022-08-17T14:42:15.576Z,37.73
2022-08-17T14:44:42.478Z,37.73
2022-08-17T14:47:15.797Z,37.88
2022-08-17T14:49:42.633Z,37.66
2022-08-17T14:52:12.937Z,37.72
2022-08-17T14:54:45.150Z,37.50
2022-08-17T14:57:24.880Z,37.10
2022-08-17T14:59:59.917Z,36.73
2022-08-17T15:02:29.631Z,36.18
2022-08-17T15:05:02.994Z,35.91
2022-08-17T15:07:31.046Z,35.40
2022-08-17T15:10:02.052Z,35.07
2022-08-17T15:12:33.656Z,34.73
2022-08-17T15:15:01.836Z,34.48
2022-08-17T15:17:44.397Z,34.30
2022-08-17T15:20:19.148Z,34.46
2022-08-17T15:22:49.800Z,34.27
2022-08-17T15:25:18.962Z,34.08
2022-08-17T15:27:46.235Z,33.93
2022-08-17T15:30:13.622Z,33.72
2022-08-17T15:32:50.896Z,33.63
2022-08-17T15:35:26.798Z,33.31
2022-08-17T15:37:56.619Z,32.83
2022-08-17T15:40:23.446Z,32.37
2022-08-17T15:42:51.130Z,32.00
2022-08-17T15:45:23.034Z,31.70
2022-08-17T15:47:49.947Z,31.27
2022-08-17T15:50:17.030Z,30.98
2022-08-17T15:52:45.001Z,30.69
2022-08-17T15:55:13.959Z,30.47
2022-08-17T15:57:41.311Z,30.23
2022-08-17T16:00:09.813Z,30.00
2022-08-17T16:03:14.013Z,29.79
2022-08-17T16:05:27.336Z,29.59
2022-08-17T16:07:55.840Z,29.41
2022-08-17T16:10:35.509Z,29.29
2022-08-17T16:13:04.239Z,29.11
2022-08-17T16:15:31.987Z,28.94
2022-08-17T16:17:59.653Z,28.82
2022-08-17T16:20:27.088Z,28.69
2022-08-17T16:22:54.954Z,28.54
2022-08-17T16:25:52.533Z,28.56
2022-08-17T16:28:20.108Z,28.31
2022-08-17T16:30:46.951Z,28.22
2022-08-17T16:33:15.080Z,28.07
2022-08-17T16:35:42.169Z,27.92
2022-08-17T16:38:09.630Z,27.82
2022-08-17T16:40:36.692Z,27.74
2022-08-17T16:43:07.030Z,27.67
2022-08-17T16:45:36.773Z,27.60
2022-08-17T16:48:04.514Z,27.50
2022-08-17T16:50:32.346Z,27.40
2022-08-17T16:53:08.283Z,27.39
2022-08-17T16:55:35.835Z,27.23
2022-08-17T16:58:06.880Z,27.20
2022-08-17T17:00:34.127Z,27.08
2022-08-17T17:03:19.090Z,27.11
2022-08-17T17:06:13.496Z,26.97
2022-08-17T17:08:52.287Z,26.87
2022-08-17T17:11:27.011Z,26.76
2022-08-17T17:14:01.571Z,26.68
2022-08-17T17:16:45.690Z,26.62
2022-08-17T17:19:40.642Z,26.57
2022-08-17T17:22:30.736Z,26.48
2022-08-17T17:25:06.446Z,26.40
2022-08-17T17:28:01.237Z,26.43
2022-08-17T17:31:01.931Z,26.42
2022-08-17T17:33:48.946Z,26.37
2022-08-17T17:36:28.763Z,26.30
2022-08-17T17:39:12.068Z,26.26
2022-08-17T17:41:51.280Z,26.19
2022-08-17T17:44:24.715Z,26.15
2022-08-17T17:47:00.309Z,26.10
2022-08-17T17:49:38.580Z,26.05
2022-08-17T17:52:19.439Z,25.97
2022-08-17T17:55:10.466Z,25.97
2022-08-17T17:57:58.915Z,25.96
2022-08-17T18:00:30.105Z,25.88
2022-08-17T18:03:20.423Z,25.91
2022-08-17T18:05:47.229Z,25.76
2022-08-17T18:08:42.013Z,25.80
2022-08-17T18:11:24.540Z,25.72
2022-08-17T18:14:14.475Z,25.67
2022-08-17T18:16:43.043Z,25.64
2022-08-17T18:19:19.852Z,25.63
2022-08-17T18:21:54.688Z,25.62
2022-08-17T18:24:38.731Z,25.60
2022-08-17T18:27:28.589Z,25.56
2022-08-17T18:29:57.588Z,25.42
2022-08-17T18:32:31.163Z,25.38
2022-08-17T18:35:00.226Z,25.34
2022-08-17T18:37:40.303Z,25.34
2022-08-17T18:40:16.307Z,25.34
2022-08-17T18:43:04.586Z,25.27
2022-08-17T18:45:40.930Z,25.27
2022-08-17T18:48:20.744Z,25.26
2022-08-17T18:50:47.777Z,25.17
2022-08-17T18:53:33.206Z,25.21
2022-08-17T18:56:27.630Z,25.16
2022-08-17T18:59:22.609Z,25.08
2022-08-17T19:02:27.208Z,25.01
2022-08-17T19:05:13.694Z,24.92
2022-08-17T19:07:45.545Z,24.89
2022-08-17T19:10:31.851Z,24.90
2022-08-17T19:13:26.955Z,24.87
2022-08-17T19:16:12.168Z,24.77
2022-08-17T19:18:53.663Z,24.82
2022-08-17T19:21:23.243Z,24.78
2022-08-17T19:24:03.451Z,24.79
2022-08-17T19:26:54.369Z,24.73
2022-08-17T19:29:34.832Z,24.76
2022-08-17T19:32:02.041Z,24.71
2022-08-17T19:34:34.774Z,24.72
2022-08-17T19:37:38.785Z,24.72
2022-08-17T19:43:47.955Z,24.64
2022-08-17T19:46:24.568Z,24.57
2022-08-17T19:48:54.055Z,24.42
2022-08-17T19:51:45.469Z,24.39
2022-08-17T19:54:45.209Z,24.33
2022-08-17T19:57:11.928Z,24.19
2022-08-17T19:59:55.941Z,24.23
2022-08-17T20:02:34.869Z,24.16
2022-08-17T20:05:18.674Z,24.12
2022-08-17T20:08:05.749Z,24.04
2022-08-17T20:10:58.700Z,23.90
2022-08-17T20:13:35.729Z,23.75
2022-08-17T20:16:04.287Z,23.58
2022-08-17T20:18:36.303Z,23.43
2022-08-17T20:21:26.823Z,23.47
2022-08-17T20:24:16.618Z,23.34
2022-08-17T20:26:58.500Z,23.27
2022-08-17T20:29:51.673Z,23.14
2022-08-17T20:32:28.547Z,23.17
2022-08-17T20:35:09.196Z,23.14
2022-08-17T20:37:39.342Z,23.06
2022-08-17T20:40:09.424Z,23.07
2022-08-17T20:42:37.575Z,23.06
2022-08-17T20:45:26.100Z,23.14
2022-08-17T20:48:27.257Z,23.08
2022-08-17T20:50:56.381Z,23.07
2022-08-17T20:53:48.123Z,23.12
2022-08-17T20:56:49.165Z,23.10
2022-08-17T20:59:30.348Z,23.05
2022-08-17T21:02:18.952Z,23.03
2022-08-17T21:05:05.452Z,23.05
2022-08-17T21:07:43.000Z,22.97
2022-08-17T21:10:25.964Z,23.04
2022-08-17T21:12:55.841Z,22.97
2022-08-17T21:16:19.954Z,23.00
2022-08-17T21:19:00.440Z,22.91
2022-08-17T21:22:05.506Z,22.87
2022-08-17T21:25:06.031Z,22.81
2022-08-17T21:28:18.100Z,22.82
2022-08-17T21:30:54.478Z,22.67
2022-08-17T21:33:34.191Z,22.59
2022-08-17T21:36:12.971Z,22.53
2022-08-17T21:38:57.763Z,22.44
2022-08-17T21:41:30.825Z,22.38
2022-08-17T21:44:13.785Z,22.37
2022-08-17T21:46:46.737Z,22.20
2022-08-17T21:49:18.420Z,22.12
2022-08-17T21:51:50.521Z,22.06
2022-08-17T21:54:38.918Z,22.03
2022-08-17T21:57:14.724Z,21.93
2022-08-17T21:59:43.692Z,21.87
2022-08-17T22:02:24.008Z,21.97
2022-08-17T22:05:07.096Z,21.93
2022-08-17T22:07:50.621Z,21.85
2022-08-17T22:10:35.053Z,21.80
2022-08-17T22:13:16.717Z,21.66
2022-08-17T22:15:50.255Z,21.60
2022-08-17T22:18:26.920Z,21.54
2022-08-17T22:20:56.568Z,21.43
2022-08-17T22:23:47.041Z,21.40
2022-08-17T22:26:16.979Z,21.31
2022-08-17T22:28:53.587Z,21.33
2022-08-17T22:31:24.388Z,21.24
2022-08-17T22:34:09.486Z,21.19
2022-08-17T22:36:39.032Z,21.09
2022-08-17T22:39:28.484Z,21.16
2022-08-17T22:42:00.469Z,21.01
2022-08-17T22:44:37.818Z,21.02
2022-08-17T22:47:11.557Z,20.94
2022-08-17T22:49:53.889Z,20.93
2022-08-17T22:53:01.898Z,20.96
2022-08-17T22:55:50.080Z,20.82
2022-08-17T22:58:38.953Z,20.79
2022-08-17T23:01:29.733Z,20.78
2022-08-17T23:04:01.540Z,20.62
2022-08-17T23:06:29.136Z,20.68
2022-08-17T23:08:57.705Z,20.49
2022-08-17T23:11:36.677Z,20.44
2022-08-17T23:14:15.846Z,20.41
2022-08-17T23:16:43.003Z,20.41
2022-08-17T23:19:11.537Z,20.36
2022-08-17T23:21:38.466Z,20.36
2022-08-17T23:24:07.883Z,20.32
2022-08-17T23:26:41.017Z,20.28
2022-08-17T23:29:09.434Z,20.24
2022-08-17T23:31:38.946Z,20.24
2022-08-17T23:34:11.643Z,20.22
2022-08-17T23:36:38.479Z,20.16
2022-08-17T23:39:07.027Z,20.11
2022-08-17T23:41:37.563Z,20.15
2022-08-17T23:44:05.936Z,20.14
2022-08-17T23:46:33.051Z,20.21
2022-08-17T23:49:00.513Z,20.27
2022-08-17T23:51:34.820Z,20.36
2022-08-17T23:54:11.652Z,20.45
2022-08-17T23:56:47.694Z,20.52
2022-08-17T23:59:16.410Z,20.56
